ZSSS/SHA METAR and TAF weather

Enter ICAO airport designator
Station Type Date Time Source
ZSSS METAR 2024/06/14 03:30 UTC NOAA

ZSSS 140330Z 16003MPS 110V250 CAVOK 30/21 Q1002 NOSIG


Station Type Date Time Source
ZSSS Decoded METAR 2024/06/14 03:30 UTC NOAA

Shanghai / Hongqiao, China (ZSSS) 31-10N 121-26E 3M
Jun 13, 2024 - 11:30 PM EDT / 2024.06.14 0330 UTC
Wind: from the SSE (160 degrees) at 7 MPH (6 KT) (direction variable):0
Visibility: greater than 7 mile(s):0
Temperature: 86 F (30 C)
Dew Point: 69 F (21 C)
Relative Humidity: 58%
Pressure (altimeter): 29.59 in. Hg (1002 hPa)
ob: ZSSS 140330Z 16003MPS 110V250 CAVOK 30/21 Q1002 NOSIG
cycle: 3

Station Type Date Time Source
ZSSS TAF 2024/06/13 18:03 UTC NOAA